createdAt,value
2022-08-26T00:07:37.934Z,65.42
2022-08-26T00:18:22.073Z,65.10
2022-08-26T00:28:51.584Z,64.96
2022-08-26T00:39:22.762Z,65.01
2022-08-26T00:49:53.113Z,65.51
2022-08-26T01:00:26.066Z,65.45
2022-08-26T01:10:55.771Z,65.18
2022-08-26T01:21:31.119Z,65.30
2022-08-26T01:32:00.893Z,65.26
2022-08-26T01:42:30.150Z,65.85
2022-08-26T01:53:02.685Z,65.64
2022-08-26T02:03:32.367Z,65.83
2022-08-26T02:14:06.028Z,65.57
2022-08-26T02:24:50.853Z,65.36
2022-08-26T02:35:23.005Z,65.20
2022-08-26T02:45:52.077Z,65.28
2022-08-26T02:56:21.339Z,65.16
2022-08-26T03:06:52.984Z,64.87
2022-08-26T03:17:22.013Z,64.88
2022-08-26T03:27:51.092Z,65.04
2022-08-26T03:38:20.825Z,65.41
2022-08-26T03:48:49.905Z,65.27
2022-08-26T03:59:18.891Z,64.63
2022-08-26T04:09:48.003Z,64.69
2022-08-26T04:20:18.646Z,64.93
2022-08-26T04:30:47.663Z,65.26
2022-08-26T04:41:16.847Z,65.24
2022-08-26T04:51:46.322Z,65.35
2022-08-26T05:02:16.125Z,65.87
2022-08-26T05:12:44.924Z,66.29
2022-08-26T05:23:14.099Z,66.81
2022-08-26T05:33:43.747Z,67.57
2022-08-26T05:44:15.220Z,67.36
2022-08-26T05:54:45.271Z,66.86
2022-08-26T06:05:16.576Z,65.16
2022-08-26T06:15:48.340Z,63.61
2022-08-26T06:26:18.418Z,60.94
2022-08-26T06:36:47.653Z,58.86
2022-08-26T06:47:16.528Z,58.24
2022-08-26T06:57:45.436Z,56.72
2022-08-26T07:08:15.047Z,55.15
2022-08-26T07:18:45.431Z,54.19
2022-08-26T07:29:17.220Z,52.14
2022-08-26T07:39:46.534Z,51.29
2022-08-26T07:50:15.865Z,50.93
2022-08-26T08:00:45.191Z,50.45
2022-08-26T08:11:14.491Z,49.55
2022-08-26T08:21:43.571Z,49.55
2022-08-26T08:32:15.463Z,49.18
2022-08-26T08:53:23.057Z,48.22
2022-08-26T09:03:59.589Z,48.49
2022-08-26T09:14:30.879Z,48.66
2022-08-26T09:25:00.502Z,48.11
2022-08-26T09:35:33.654Z,48.71
2022-08-26T09:46:19.464Z,47.72
2022-08-26T09:56:48.696Z,46.45
2022-08-26T10:07:34.196Z,45.71
2022-08-26T10:18:11.403Z,45.91
2022-08-26T10:28:45.450Z,44.61
2022-08-26T10:39:21.504Z,45.05
2022-08-26T10:49:58.718Z,44.05
2022-08-26T11:00:55.860Z,43.93
2022-08-26T11:11:49.767Z,43.18
2022-08-26T11:22:29.770Z,42.66
2022-08-26T11:33:00.498Z,42.34
2022-08-26T11:43:30.631Z,41.99
2022-08-26T11:54:15.822Z,40.79
2022-08-26T12:04:44.731Z,40.52
2022-08-26T12:15:20.131Z,39.49
2022-08-26T12:25:50.983Z,38.88
2022-08-26T12:36:24.714Z,38.55
2022-08-26T12:46:53.794Z,38.66
2022-08-26T12:57:29.787Z,37.68
2022-08-26T13:08:17.119Z,39.24
2022-08-26T13:18:46.251Z,39.58
2022-08-26T13:29:15.555Z,40.29
2022-08-26T13:39:44.528Z,41.26
2022-08-26T13:50:13.830Z,41.47
2022-08-26T14:00:43.339Z,41.75
2022-08-26T14:11:12.443Z,41.48
2022-08-26T14:21:42.136Z,41.32
2022-08-26T14:32:15.481Z,41.23
2022-08-26T14:42:49.187Z,41.76
2022-08-26T14:53:39.096Z,42.07
2022-08-26T15:04:08.476Z,41.39
2022-08-26T15:14:37.546Z,41.24
2022-08-26T15:25:08.150Z,41.51
2022-08-26T15:35:40.267Z,41.07
2022-08-26T15:46:15.390Z,40.63
2022-08-26T15:56:47.978Z,39.90
2022-08-26T16:07:17.019Z,39.92
2022-08-26T16:17:46.107Z,40.71
2022-08-26T16:28:15.940Z,41.03
2022-08-26T16:38:56.738Z,41.11
2022-08-26T16:49:25.871Z,41.55
2022-08-26T16:59:54.803Z,41.97
2022-08-26T17:10:24.904Z,43.01
2022-08-26T17:20:54.955Z,43.54
2022-08-26T17:31:24.912Z,43.47
2022-08-26T17:41:54.017Z,43.93
2022-08-26T17:52:23.026Z,45.05
2022-08-26T18:02:52.072Z,44.47
2022-08-26T18:13:21.762Z,45.37
2022-08-26T18:23:51.600Z,45.94
2022-08-26T18:34:21.334Z,46.50
2022-08-26T18:44:53.225Z,46.81
2022-08-26T18:55:22.587Z,47.84
2022-08-26T19:05:54.452Z,47.86
2022-08-26T19:16:28.223Z,48.09
2022-08-26T19:26:59.415Z,48.13
2022-08-26T19:37:28.920Z,48.59
2022-08-26T19:47:59.193Z,48.65
2022-08-26T19:58:28.388Z,49.05
2022-08-26T20:08:57.979Z,49.95
2022-08-26T20:19:45.240Z,49.66
2022-08-26T20:30:16.203Z,49.70
2022-08-26T20:40:45.941Z,50.53
2022-08-26T20:51:15.125Z,50.48
2022-08-26T21:01:45.467Z,52.34
2022-08-26T21:12:14.517Z,53.03
2022-08-26T21:22:43.612Z,53.45
2022-08-26T21:33:12.621Z,53.74
2022-08-26T21:43:42.619Z,53.74
2022-08-26T21:54:13.099Z,54.76
2022-08-26T22:04:44.595Z,55.00
2022-08-26T22:15:20.110Z,54.69
2022-08-26T22:25:49.791Z,54.80
2022-08-26T22:36:24.762Z,55.33
2022-08-26T22:46:55.898Z,55.89
2022-08-26T22:57:24.880Z,56.15
2022-08-26T23:07:54.371Z,57.17
2022-08-26T23:18:23.431Z,57.25
2022-08-26T23:28:53.705Z,57.38
2022-08-26T23:39:23.093Z,57.11
2022-08-26T23:49:52.055Z,56.99
